Lake Park, Georgia
Current Conditions -  °F | °C
As of 10:53 PM on Wednesday 17 Dec 2014 (Local Time) from KVLD Reporting Station
Clear Clear  
Wind Chill: 41°   Ceiling: Unl
Heat Index: 41°   Visibility: 10mi
Dew Point: 39°   Wind: 0mph
Humidity: 93%   Direction: NA
Pressure: 30.16"   Gusts: NA
Location:  30.68°N, 83.18°W
Report Text: KVLD 180353Z 00000KT 10SM CLR 05/04 A3016 RMK AO2 SLP222 T00500039 $
Loading
Personal Weather Stations






























Interactive Weather Map New forecast layout! Learn more

10-Day Weather Forecast

Advertisements
Track Severe Weather on mobile